createdAt,value
2018-07-14T00:01:10.628Z,19.00
2018-07-14T00:03:38.987Z,19.00
2018-07-14T00:06:07.666Z,19.00
2018-07-14T00:08:36.559Z,18.80
2018-07-14T00:11:04.995Z,18.60
2018-07-14T00:13:33.631Z,18.60
2018-07-14T00:16:02.611Z,18.60
2018-07-14T00:18:31.002Z,18.50
2018-07-14T00:20:59.994Z,18.20
2018-07-14T00:23:28.832Z,18.10
2018-07-14T00:26:03.011Z,18.10
2018-07-14T00:28:38.739Z,18.20
2018-07-14T00:31:07.116Z,18.30
2018-07-14T00:33:35.478Z,18.30
2018-07-14T00:36:03.867Z,18.30
2018-07-14T00:38:32.548Z,18.40
2018-07-14T00:41:01.487Z,18.40
2018-07-14T00:43:29.859Z,18.50
2018-07-14T00:45:58.236Z,18.50
2018-07-14T00:48:26.603Z,18.60
2018-07-14T00:50:55.268Z,18.60
2018-07-14T00:53:23.702Z,18.60
2018-07-14T00:58:21.379Z,18.60
2018-07-14T01:00:50.051Z,18.50
2018-07-14T01:03:18.707Z,18.40
2018-07-14T01:05:47.111Z,18.40
2018-07-14T01:08:15.759Z,18.40
2018-07-14T01:10:44.939Z,18.40
2018-07-14T01:13:13.309Z,18.30
2018-07-14T01:15:41.929Z,18.40
2018-07-14T01:18:10.912Z,18.30
2018-07-14T01:20:39.643Z,18.30
2018-07-14T01:23:08.020Z,18.30
2018-07-14T01:25:37.075Z,18.30
2018-07-14T01:28:05.647Z,18.30
2018-07-14T01:30:34.043Z,18.30
2018-07-14T01:33:02.536Z,18.20
2018-07-14T01:35:31.146Z,18.20
2018-07-14T01:37:59.806Z,18.10
2018-07-14T01:40:28.169Z,17.90
2018-07-14T01:42:56.863Z,17.80
2018-07-14T01:45:25.475Z,17.70
2018-07-14T01:47:56.211Z,17.60
2018-07-14T01:50:24.588Z,17.60
2018-07-14T01:52:53.332Z,17.50
2018-07-14T01:55:21.939Z,17.50
2018-07-14T01:57:50.399Z,17.30
2018-07-14T02:00:19.071Z,17.20
2018-07-14T02:02:47.657Z,17.10
2018-07-14T02:05:16.343Z,17.10
2018-07-14T02:07:44.719Z,17.10
2018-07-14T02:10:13.402Z,17.10
2018-07-14T02:12:42.114Z,17.10
2018-07-14T02:15:10.471Z,16.80
2018-07-14T02:17:39.159Z,16.50
2018-07-14T02:20:07.832Z,16.30
2018-07-14T02:22:36.197Z,16.30
2018-07-14T02:25:04.579Z,16.30
2018-07-14T02:27:33.228Z,16.50
2018-07-14T02:30:01.831Z,16.60
2018-07-14T02:32:30.208Z,16.70
2018-07-14T02:34:58.822Z,16.70
2018-07-14T02:37:27.615Z,16.70
2018-07-14T02:39:56.035Z,16.70
2018-07-14T02:42:24.415Z,16.50
2018-07-14T02:44:53.155Z,16.50
2018-07-14T02:47:21.763Z,16.40
2018-07-14T02:49:50.663Z,16.40
2018-07-14T02:52:19.132Z,16.40
2018-07-14T02:54:48.405Z,16.50
2018-07-14T02:57:17.060Z,16.50
2018-07-14T02:59:45.637Z,16.50
2018-07-14T03:02:14.256Z,16.60
2018-07-14T03:04:42.696Z,16.50
2018-07-14T03:07:11.367Z,16.60
2018-07-14T03:09:39.828Z,16.60
2018-07-14T03:12:08.232Z,16.70
2018-07-14T03:14:37.489Z,16.80
2018-07-14T03:17:05.868Z,16.80
2018-07-14T03:19:34.537Z,16.80
2018-07-14T03:22:02.884Z,16.80
2018-07-14T03:24:31.254Z,16.80
2018-07-14T03:26:59.822Z,16.80
2018-07-14T03:29:28.183Z,16.70
2018-07-14T03:31:56.547Z,16.70
2018-07-14T03:34:25.231Z,16.60
2018-07-14T03:36:53.555Z,16.50
2018-07-14T03:39:21.928Z,16.60
2018-07-14T03:41:51.509Z,16.70
2018-07-14T03:44:20.407Z,16.80
2018-07-14T03:46:48.771Z,16.90
2018-07-14T03:49:17.431Z,17.00
2018-07-14T03:51:46.259Z,17.00
2018-07-14T03:54:14.635Z,17.10
2018-07-14T03:56:43.273Z,17.10
2018-07-14T03:59:11.672Z,17.10
2018-07-14T04:01:40.031Z,17.10
2018-07-14T04:04:08.431Z,17.00
2018-07-14T04:06:36.799Z,16.90
2018-07-14T04:09:06.159Z,16.90
2018-07-14T04:11:34.535Z,16.90
2018-07-14T04:14:03.247Z,16.90
2018-07-14T04:21:27.983Z,16.80
2018-07-14T04:23:56.351Z,16.60
2018-07-14T04:26:24.990Z,16.70
2018-07-14T04:28:53.955Z,16.90
2018-07-14T04:31:22.307Z,17.10
2018-07-14T04:33:50.785Z,17.20
2018-07-14T04:36:19.158Z,17.20
2018-07-14T04:38:47.978Z,17.20
2018-07-14T04:41:16.971Z,17.20
2018-07-14T04:43:45.319Z,17.30
2018-07-14T04:48:42.351Z,17.20
2018-07-14T04:51:10.712Z,17.20
2018-07-14T04:53:39.183Z,17.20
2018-07-14T04:56:07.824Z,17.20
2018-07-14T04:58:36.191Z,17.20
2018-07-14T05:01:04.927Z,17.20
2018-07-14T05:03:33.636Z,17.20
2018-07-14T05:06:01.990Z,17.20
2018-07-14T05:08:31.355Z,17.30
2018-07-14T05:10:59.767Z,17.30
2018-07-14T05:13:28.132Z,17.50
2018-07-14T05:15:56.483Z,18.00
2018-07-14T05:18:24.907Z,18.50
2018-07-14T05:20:53.259Z,18.70
2018-07-14T05:23:21.659Z,19.30
2018-07-14T05:25:50.374Z,19.90
2018-07-14T05:28:18.722Z,20.30
2018-07-14T05:30:47.088Z,20.60
2018-07-14T05:33:15.471Z,20.90
2018-07-14T05:35:44.368Z,21.30
2018-07-14T05:38:13.003Z,21.60
2018-07-14T05:40:41.712Z,21.40
2018-07-14T05:43:10.115Z,21.20
2018-07-14T05:45:38.804Z,21.00
2018-07-14T05:48:07.219Z,20.80
2018-07-14T05:50:35.583Z,20.70
2018-07-14T05:53:04.232Z,20.60
2018-07-14T05:55:32.699Z,20.70
2018-07-14T05:58:01.147Z,20.10
2018-07-14T06:00:29.503Z,20.00
2018-07-14T06:02:58.195Z,19.80
2018-07-14T06:05:28.847Z,19.70
2018-07-14T06:07:58.740Z,19.80
2018-07-14T06:10:28.107Z,20.00
2018-07-14T06:12:57.372Z,20.20
2018-07-14T06:15:26.062Z,20.80
2018-07-14T06:17:54.419Z,21.70
2018-07-14T06:20:22.847Z,22.50
2018-07-14T06:22:52.008Z,23.10
2018-07-14T06:25:21.062Z,23.60
2018-07-14T06:27:50.629Z,23.80
2018-07-14T06:30:19.335Z,24.50
2018-07-14T06:32:47.692Z,24.90
2018-07-14T06:35:16.072Z,25.40
2018-07-14T06:37:44.455Z,25.70
2018-07-14T06:40:13.340Z,25.90
2018-07-14T06:42:41.759Z,26.20
2018-07-14T06:45:10.171Z,26.40
2018-07-14T06:47:38.522Z,26.50
2018-07-14T06:50:07.063Z,26.70
2018-07-14T06:52:35.867Z,27.20
2018-07-14T06:55:04.275Z,27.40
2018-07-14T06:57:32.628Z,27.50
2018-07-14T07:00:01.035Z,27.70
2018-07-14T07:02:29.697Z,28.10
2018-07-14T07:04:59.522Z,28.20
2018-07-14T07:07:28.183Z,28.10
2018-07-14T07:09:57.884Z,28.20
2018-07-14T07:12:27.445Z,28.40
2018-07-14T07:14:57.702Z,28.60
2018-07-14T07:17:26.124Z,28.80
2018-07-14T07:19:54.599Z,28.70
2018-07-14T07:22:23.074Z,28.90
2018-07-14T07:24:51.755Z,29.00
2018-07-14T07:27:20.143Z,29.00
2018-07-14T07:29:48.499Z,29.30
2018-07-14T07:32:17.516Z,29.30
2018-07-14T07:34:46.464Z,29.40
2018-07-14T07:37:15.000Z,29.50
2018-07-14T07:39:43.703Z,29.30
2018-07-14T07:42:12.343Z,29.00
2018-07-14T07:44:40.805Z,29.20
2018-07-14T07:47:09.287Z,29.40
2018-07-14T07:49:37.676Z,29.50
2018-07-14T07:52:06.076Z,29.90
2018-07-14T07:54:34.451Z,30.00
2018-07-14T07:57:03.072Z,30.10
2018-07-14T07:59:31.431Z,30.10
2018-07-14T08:01:59.791Z,30.10
2018-07-14T08:04:28.175Z,30.30
2018-07-14T08:06:56.528Z,30.30
2018-07-14T08:09:24.872Z,30.60
2018-07-14T08:11:53.519Z,30.70
2018-07-14T08:14:22.135Z,30.80
2018-07-14T08:16:50.487Z,31.00
2018-07-14T08:19:19.782Z,31.30
2018-07-14T08:21:48.423Z,31.80
2018-07-14T08:24:17.339Z,32.00
2018-07-14T08:26:45.789Z,32.30
2018-07-14T08:29:14.147Z,32.70
2018-07-14T08:36:38.910Z,32.50
2018-07-14T08:39:08.247Z,32.80
2018-07-14T08:41:36.707Z,32.50
2018-07-14T08:44:05.387Z,33.00
2018-07-14T08:46:33.746Z,32.70
2018-07-14T08:49:03.558Z,32.70
2018-07-14T08:51:32.022Z,32.70
2018-07-14T08:54:00.664Z,32.00
2018-07-14T08:56:29.287Z,32.30
2018-07-14T08:58:57.912Z,32.20
2018-07-14T09:01:26.263Z,32.70
2018-07-14T09:03:54.672Z,33.00
2018-07-14T09:06:23.178Z,33.10
2018-07-14T09:08:51.640Z,33.30
2018-07-14T09:11:20.080Z,32.60
2018-07-14T09:13:48.496Z,32.50
2018-07-14T09:16:17.176Z,32.70
2018-07-14T09:18:46.156Z,32.80
2018-07-14T09:21:14.560Z,33.30
2018-07-14T09:23:42.927Z,33.70
2018-07-14T09:26:11.954Z,33.20
2018-07-14T09:28:40.592Z,33.60
2018-07-14T09:31:08.990Z,33.60
2018-07-14T09:33:37.387Z,33.60
2018-07-14T09:36:05.770Z,33.60
2018-07-14T09:38:34.411Z,33.50
2018-07-14T09:41:03.097Z,33.70
2018-07-14T09:43:31.991Z,34.00
2018-07-14T09:46:00.360Z,34.20
2018-07-14T09:48:28.882Z,34.30
2018-07-14T09:50:57.240Z,34.50
2018-07-14T09:53:26.119Z,33.90
2018-07-14T09:55:54.560Z,34.10
2018-07-14T09:58:23.218Z,34.20
2018-07-14T10:00:57.287Z,34.20
2018-07-14T10:03:26.215Z,34.20
2018-07-14T10:05:54.567Z,34.30
2018-07-14T10:08:23.035Z,34.60
2018-07-14T10:10:51.431Z,34.90
2018-07-14T10:13:20.134Z,34.60
2018-07-14T10:15:48.724Z,33.90
2018-07-14T10:18:17.439Z,33.10
2018-07-14T10:20:46.019Z,32.00
2018-07-14T10:25:43.173Z,31.50
2018-07-14T10:28:11.397Z,31.90
2018-07-14T10:30:40.393Z,32.00
2018-07-14T10:33:09.828Z,32.70
2018-07-14T10:35:38.242Z,33.50
2018-07-14T10:38:06.887Z,34.00
2018-07-14T10:40:35.355Z,34.40
2018-07-14T10:43:06.192Z,33.90
2018-07-14T10:45:35.160Z,33.50
2018-07-14T10:48:03.855Z,33.50
2018-07-14T10:50:32.239Z,33.90
2018-07-14T10:53:00.611Z,34.20
2018-07-14T10:55:29.287Z,35.20
2018-07-14T10:57:58.075Z,35.20
2018-07-14T11:00:26.863Z,35.40
2018-07-14T11:02:55.253Z,35.40
2018-07-14T11:05:30.127Z,34.60
2018-07-14T11:07:58.480Z,34.80
2018-07-14T11:10:26.839Z,34.50
2018-07-14T11:12:55.519Z,33.50
2018-07-14T11:15:23.875Z,32.00
2018-07-14T11:17:52.284Z,31.00
2018-07-14T11:20:20.675Z,30.30
2018-07-14T11:22:49.135Z,30.60
2018-07-14T11:25:17.919Z,30.30
2018-07-14T11:27:46.579Z,30.40
2018-07-14T11:30:15.620Z,30.30
2018-07-14T11:32:44.183Z,29.70
2018-07-14T11:35:13.174Z,29.30
2018-07-14T11:37:41.900Z,28.80
2018-07-14T11:40:10.541Z,28.50
2018-07-14T11:42:38.919Z,28.30
2018-07-14T11:45:07.916Z,28.30
2018-07-14T11:47:36.362Z,28.20
2018-07-14T11:50:04.864Z,28.50
2018-07-14T11:52:33.220Z,29.30
2018-07-14T11:55:01.579Z,30.00
2018-07-14T11:57:30.255Z,30.50
2018-07-14T11:59:59.129Z,30.70
2018-07-14T12:02:27.483Z,31.00
2018-07-14T12:04:55.858Z,30.90
2018-07-14T12:07:24.395Z,30.80
2018-07-14T12:09:52.710Z,30.70
2018-07-14T12:12:21.607Z,30.70
2018-07-14T12:14:50.351Z,30.90
2018-07-14T12:17:18.808Z,31.10
2018-07-14T12:19:47.515Z,30.50
2018-07-14T12:22:16.061Z,30.80
2018-07-14T12:24:44.879Z,31.20
2018-07-14T12:27:13.302Z,31.60
2018-07-14T12:29:42.303Z,31.70
2018-07-14T12:32:10.670Z,31.60
2018-07-14T12:34:39.052Z,31.30
2018-07-14T12:37:07.878Z,31.60
2018-07-14T12:39:36.536Z,31.40
2018-07-14T12:42:05.155Z,31.10
2018-07-14T12:44:34.123Z,31.40
2018-07-14T12:47:02.791Z,31.40
2018-07-14T12:49:31.459Z,30.10
2018-07-14T12:52:13.230Z,30.30
2018-07-14T12:54:41.983Z,30.00
2018-07-14T12:57:10.683Z,30.00
2018-07-14T12:59:39.095Z,29.90
2018-07-14T13:02:07.646Z,29.10
2018-07-14T13:04:36.055Z,29.10
2018-07-14T13:07:04.837Z,29.50
2018-07-14T13:09:33.475Z,29.40
2018-07-14T13:12:01.876Z,29.40
2018-07-14T13:14:30.619Z,29.30
2018-07-14T13:16:59.497Z,28.80
2018-07-14T13:19:27.923Z,28.80
2018-07-14T13:21:56.675Z,28.80
2018-07-14T13:24:25.667Z,28.90
2018-07-14T13:26:54.096Z,29.00
2018-07-14T13:29:22.490Z,28.80
2018-07-14T13:31:50.879Z,28.50
2018-07-14T13:34:19.363Z,28.20
2018-07-14T13:36:47.743Z,28.10
2018-07-14T13:39:16.790Z,28.00
2018-07-14T13:41:45.195Z,28.10
2018-07-14T13:44:13.822Z,28.30
2018-07-14T13:46:42.248Z,28.50
2018-07-14T13:54:07.540Z,28.50
2018-07-14T13:56:35.968Z,28.50
2018-07-14T13:59:04.379Z,28.60
2018-07-14T14:01:32.759Z,28.80
2018-07-14T14:04:01.138Z,29.00
2018-07-14T14:06:29.877Z,29.00
2018-07-14T14:08:58.399Z,29.00
2018-07-14T14:11:27.004Z,29.20
2018-07-14T14:13:55.699Z,29.50
2018-07-14T14:16:24.095Z,29.60
2018-07-14T14:18:52.566Z,29.50
2018-07-14T14:21:20.963Z,29.60
2018-07-14T14:23:49.344Z,29.60
2018-07-14T14:26:18.002Z,29.80
2018-07-14T14:28:46.364Z,29.90
2018-07-14T14:31:15.035Z,30.00
2018-07-14T14:33:43.421Z,29.90
2018-07-14T14:36:12.222Z,29.70
2018-07-14T14:38:41.008Z,29.40
2018-07-14T14:41:09.391Z,29.40
2018-07-14T14:43:38.139Z,29.30
2018-07-14T14:46:06.848Z,29.40
2018-07-14T14:48:35.220Z,29.20
2018-07-14T14:51:03.928Z,29.00
2018-07-14T14:53:32.540Z,28.60
2018-07-14T14:56:01.205Z,28.70
2018-07-14T14:58:29.614Z,28.70
2018-07-14T15:00:58.294Z,28.90
2018-07-14T15:03:26.648Z,28.90
2018-07-14T15:05:55.467Z,28.80
2018-07-14T15:08:24.000Z,28.80
2018-07-14T15:10:52.644Z,28.60
2018-07-14T15:13:21.349Z,28.70
2018-07-14T15:15:49.743Z,28.80
2018-07-14T15:18:18.451Z,29.00
2018-07-14T15:20:47.124Z,29.00
2018-07-14T15:23:15.551Z,28.80
2018-07-14T15:25:44.537Z,28.90
2018-07-14T15:28:13.179Z,28.90
2018-07-14T15:30:41.815Z,28.80
2018-07-14T15:33:10.967Z,28.80
2018-07-14T15:35:39.372Z,28.70
2018-07-14T15:38:07.727Z,28.50
2018-07-14T15:40:36.555Z,28.40
2018-07-14T15:43:04.962Z,28.70
2018-07-14T15:45:33.491Z,28.60
2018-07-14T15:48:02.151Z,28.60
2018-07-14T15:50:30.792Z,28.60
2018-07-14T15:52:59.200Z,28.50
2018-07-14T15:55:27.619Z,28.70
2018-07-14T15:57:56.288Z,28.80
2018-07-14T16:00:24.751Z,28.70
2018-07-14T16:02:53.343Z,28.60
2018-07-14T16:05:21.716Z,28.60
2018-07-14T16:07:50.611Z,28.60
2018-07-14T16:10:19.247Z,28.40
2018-07-14T16:12:48.183Z,28.50
2018-07-14T16:15:17.278Z,28.50
2018-07-14T16:17:45.915Z,28.50
2018-07-14T16:20:14.547Z,28.50
2018-07-14T16:22:43.244Z,28.40
2018-07-14T16:25:11.862Z,28.30
2018-07-14T16:27:40.570Z,28.40
2018-07-14T16:30:08.969Z,28.40
2018-07-14T16:32:37.355Z,28.30
2018-07-14T16:35:06.107Z,28.30
2018-07-14T16:37:34.807Z,28.40
2018-07-14T16:40:03.207Z,28.50
2018-07-14T16:42:31.576Z,28.40
2018-07-14T16:45:00.064Z,28.40
2018-07-14T16:47:28.452Z,28.40
2018-07-14T16:49:56.955Z,28.40
2018-07-14T16:52:25.402Z,28.20
2018-07-14T16:54:53.777Z,28.20
2018-07-14T16:57:22.167Z,28.20
2018-07-14T16:59:50.583Z,28.10
2018-07-14T17:02:18.987Z,28.20
2018-07-14T17:04:47.608Z,28.20
2018-07-14T17:07:16.008Z,28.10
2018-07-14T17:09:44.375Z,28.10
2018-07-14T17:12:13.303Z,28.10
2018-07-14T17:14:41.683Z,28.00
2018-07-14T17:17:10.832Z,28.00
2018-07-14T17:19:40.259Z,28.00
2018-07-14T17:22:09.199Z,27.90
2018-07-14T17:24:37.844Z,27.90
2018-07-14T17:27:06.609Z,27.80
2018-07-14T17:29:34.971Z,27.80
2018-07-14T17:32:03.591Z,27.70
2018-07-14T17:34:32.551Z,27.80
2018-07-14T17:37:00.951Z,27.70
2018-07-14T17:39:29.567Z,27.60
2018-07-14T17:41:58.227Z,27.60
2018-07-14T17:44:26.847Z,27.60
2018-07-14T17:46:55.460Z,27.60
2018-07-14T17:49:23.868Z,27.50
2018-07-14T17:51:52.659Z,27.30
2018-07-14T17:54:21.522Z,27.30
2018-07-14T17:56:50.391Z,27.20
2018-07-14T17:59:18.763Z,27.20
2018-07-14T18:01:47.504Z,27.30
2018-07-14T18:04:16.156Z,27.20
2018-07-14T18:06:44.527Z,27.10
2018-07-14T18:09:13.347Z,27.10
2018-07-14T18:11:43.011Z,26.90
2018-07-14T18:14:11.389Z,27.00
2018-07-14T18:16:39.822Z,27.00
2018-07-14T18:19:08.147Z,27.00
2018-07-14T18:21:36.522Z,27.00
2018-07-14T18:24:05.068Z,26.90
2018-07-14T18:26:33.612Z,26.90
2018-07-14T18:29:02.257Z,26.80
2018-07-14T18:31:30.655Z,26.80
2018-07-14T18:33:59.731Z,26.70
2018-07-14T18:36:28.403Z,26.60
2018-07-14T18:38:56.773Z,26.60
2018-07-14T18:41:25.818Z,26.50
2018-07-14T18:43:54.544Z,26.40
2018-07-14T18:46:23.149Z,26.30
2018-07-14T18:48:51.938Z,26.30
2018-07-14T18:51:20.303Z,26.30
2018-07-14T18:53:48.683Z,26.20
2018-07-14T18:56:17.096Z,26.20
2018-07-14T18:58:45.515Z,26.10
2018-07-14T19:01:13.891Z,26.00
2018-07-14T19:03:42.655Z,25.90
2018-07-14T19:06:11.135Z,25.70
2018-07-14T19:08:39.573Z,25.60
2018-07-14T19:11:08.616Z,25.50
2018-07-14T19:13:36.999Z,25.40
2018-07-14T19:16:05.404Z,25.40
2018-07-14T19:18:33.868Z,25.30
2018-07-14T19:21:02.251Z,25.20
2018-07-14T19:23:31.077Z,24.90
2018-07-14T19:25:59.617Z,24.70
2018-07-14T19:28:28.499Z,24.70
2018-07-14T19:30:57.682Z,24.50
2018-07-14T19:33:26.084Z,24.40
2018-07-14T19:35:54.895Z,24.20
2018-07-14T19:38:23.533Z,24.10
2018-07-14T19:40:52.231Z,24.00
2018-07-14T19:43:21.139Z,23.90
2018-07-14T19:45:49.888Z,23.80
2018-07-14T19:48:19.359Z,23.60
2018-07-14T19:55:44.284Z,23.50
2018-07-14T19:58:12.672Z,23.40
2018-07-14T20:00:41.083Z,23.50
2018-07-14T20:03:09.760Z,23.50
2018-07-14T20:05:38.664Z,23.40
2018-07-14T20:08:07.703Z,23.20
2018-07-14T20:10:36.863Z,22.70
2018-07-14T20:13:05.331Z,22.40
2018-07-14T20:15:33.724Z,22.30
2018-07-14T20:18:02.715Z,22.30
2018-07-14T20:20:31.343Z,22.30
2018-07-14T20:23:00.000Z,22.30
2018-07-14T20:25:28.670Z,22.30
2018-07-14T20:27:57.349Z,22.30
2018-07-14T20:30:26.028Z,22.30
2018-07-14T20:32:54.671Z,22.30
2018-07-14T20:35:23.275Z,22.20
2018-07-14T20:37:52.112Z,22.10
2018-07-14T20:40:20.695Z,22.10
2018-07-14T20:42:49.116Z,21.90
2018-07-14T20:45:17.676Z,21.70
2018-07-14T20:47:46.601Z,21.50
2018-07-14T20:50:15.136Z,21.50
2018-07-14T20:52:43.534Z,21.60
2018-07-14T20:55:12.271Z,21.50
2018-07-14T20:57:40.983Z,21.40
2018-07-14T21:00:09.403Z,21.40
2018-07-14T21:02:38.044Z,21.30
2018-07-14T21:05:06.702Z,21.20
2018-07-14T21:07:35.631Z,21.10
2018-07-14T21:10:04.293Z,21.00
2018-07-14T21:12:33.843Z,20.90
2018-07-14T21:15:02.117Z,20.80
2018-07-14T21:17:30.527Z,20.50
2018-07-14T21:19:58.909Z,20.30
2018-07-14T21:22:27.472Z,20.30
2018-07-14T21:24:55.831Z,20.30
2018-07-14T21:27:24.281Z,20.40
2018-07-14T21:29:52.672Z,20.40
2018-07-14T21:32:21.044Z,20.30
2018-07-14T21:34:49.718Z,20.30
2018-07-14T21:37:18.048Z,20.40
2018-07-14T21:39:46.659Z,20.40
2018-07-14T21:42:15.057Z,20.20
2018-07-14T21:44:43.740Z,20.10
2018-07-14T21:47:12.412Z,20.00
2018-07-14T21:49:41.063Z,20.00
2018-07-14T21:52:09.455Z,19.90
2018-07-14T21:54:37.920Z,19.80
2018-07-14T21:57:06.516Z,19.80
2018-07-14T21:59:34.891Z,19.60
2018-07-14T22:02:04.951Z,19.70
2018-07-14T22:04:34.672Z,19.70
2018-07-14T22:07:03.123Z,19.60
2018-07-14T22:09:31.831Z,19.70
2018-07-14T22:12:00.682Z,19.60
2018-07-14T22:14:29.059Z,19.60
2018-07-14T22:16:57.798Z,19.50
2018-07-14T22:19:26.171Z,19.40
2018-07-14T22:21:54.547Z,19.30
2018-07-14T22:24:22.934Z,19.10
2018-07-14T22:26:51.651Z,19.00
2018-07-14T22:29:20.414Z,19.00
2018-07-14T22:31:49.151Z,18.90
2018-07-14T22:34:17.683Z,18.80
2018-07-14T22:36:46.556Z,18.90
2018-07-14T22:39:15.311Z,18.90
2018-07-14T22:41:45.571Z,19.00
2018-07-14T22:44:13.968Z,18.80
2018-07-14T22:46:42.601Z,18.50
2018-07-14T22:49:11.308Z,18.30
2018-07-14T22:51:39.968Z,18.00
2018-07-14T22:54:08.887Z,17.90
2018-07-14T22:56:37.285Z,17.90
2018-07-14T22:59:05.714Z,17.80
2018-07-14T23:01:34.427Z,17.70
2018-07-14T23:04:02.851Z,17.80
2018-07-14T23:06:31.576Z,17.90
2018-07-14T23:09:00.472Z,18.00
2018-07-14T23:11:29.143Z,18.20
2018-07-14T23:13:58.036Z,18.30
2018-07-14T23:16:26.623Z,18.30
2018-07-14T23:18:55.016Z,18.10
2018-07-14T23:21:23.684Z,17.90
2018-07-14T23:23:52.052Z,17.90
2018-07-14T23:26:20.575Z,17.90
2018-07-14T23:28:48.920Z,17.90
2018-07-14T23:31:17.403Z,18.10
2018-07-14T23:33:45.780Z,18.20
2018-07-14T23:36:14.379Z,18.10
2018-07-14T23:38:43.558Z,17.90
2018-07-14T23:41:11.936Z,17.90
2018-07-14T23:43:40.324Z,18.00
2018-07-14T23:46:08.959Z,18.10
2018-07-14T23:48:37.595Z,18.10
2018-07-14T23:51:06.377Z,18.10
2018-07-14T23:53:35.059Z,18.10
2018-07-14T23:56:03.946Z,18.10
2018-07-14T23:58:32.643Z,18.20
